SDAI weather

Americana Airport
Americana, São Paulo, Brazil

Public forecast

Using degrees Celsius for public forecast. Weather courtesy of forecast.io.

Closest aviation weather report (METAR) to Americana Airport

Closest report is Viracopos International Airport, 16.8 nm (31.2 km) SSE. Retrieved 2020/07/12 10:00 UTC (23 minutes ago):

SBKP 121000Z 07003KT CAVOK 15/12 Q1017

Closest aviation forecast (TAF) to Americana Airport

Closest forecast is Viracopos International Airport, 16.8 nm (31.2 km) SSE. Retrieved 2020/07/12 06:00 UTC (4 hours ago):

TAF SBKP 120209Z 1206/1306 02005KT CAVOK TN15/1209Z TX28/1217Z PROB30 1208/1211 05005KT 6000 FEW007 BECMG 1212/1214 33010KT TEMPO 1216/1218 33012G22KT RMK PHM